sensor_id;sensor_type;location;lat;lon;timestamp;temperature;humidity
17887;DHT22;9069;52.044;7.472;2023-03-21T00:00:28;13.20;97.10
17887;DHT22;9069;52.044;7.472;2023-03-21T00:02:55;13.20;97.10
17887;DHT22;9069;52.044;7.472;2023-03-21T00:05:22;13.20;97.10
17887;DHT22;9069;52.044;7.472;2023-03-21T00:07:49;13.20;97.10
17887;DHT22;9069;52.044;7.472;2023-03-21T00:10:16;13.20;97.10
17887;DHT22;9069;52.044;7.472;2023-03-21T00:12:58;13.20;97.20
17887;DHT22;9069;52.044;7.472;2023-03-21T00:15:25;13.20;97.20
17887;DHT22;9069;52.044;7.472;2023-03-21T00:18:08;13.20;97.20
17887;DHT22;9069;52.044;7.472;2023-03-21T00:20:36;13.20;97.20
17887;DHT22;9069;52.044;7.472;2023-03-21T00:23:03;13.30;97.20
17887;DHT22;9069;52.044;7.472;2023-03-21T00:25:30;13.30;97.20
17887;DHT22;9069;52.044;7.472;2023-03-21T00:27:58;13.30;97.20
17887;DHT22;9069;52.044;7.472;2023-03-21T00:30:34;13.30;97.20
17887;DHT22;9069;52.044;7.472;2023-03-21T00:33:00;13.30;97.20
17887;DHT22;9069;52.044;7.472;2023-03-21T00:35:45;13.30;97.20
17887;DHT22;9069;52.044;7.472;2023-03-21T00:38:32;13.20;97.50
17887;DHT22;9069;52.044;7.472;2023-03-21T00:41:02;13.30;97.10
17887;DHT22;9069;52.044;7.472;2023-03-21T00:43:43;13.30;97.20
17887;DHT22;9069;52.044;7.472;2023-03-21T00:46:09;13.30;97.20
17887;DHT22;9069;52.044;7.472;2023-03-21T00:48:38;13.30;97.20
17887;DHT22;9069;52.044;7.472;2023-03-21T00:51:18;13.30;97.60
17887;DHT22;9069;52.044;7.472;2023-03-21T00:53:56;13.30;97.30
17887;DHT22;9069;52.044;7.472;2023-03-21T00:56:26;13.30;97.30
17887;DHT22;9069;52.044;7.472;2023-03-21T00:58:53;13.30;97.40
17887;DHT22;9069;52.044;7.472;2023-03-21T01:01:20;13.30;97.40
17887;DHT22;9069;52.044;7.472;2023-03-21T01:03:46;13.30;97.40
17887;DHT22;9069;52.044;7.472;2023-03-21T01:06:19;13.30;97.50
17887;DHT22;9069;52.044;7.472;2023-03-21T01:08:47;13.30;97.50
17887;DHT22;9069;52.044;7.472;2023-03-21T01:11:24;13.30;97.50
17887;DHT22;9069;52.044;7.472;2023-03-21T01:13:52;13.30;97.50
17887;DHT22;9069;52.044;7.472;2023-03-21T01:16:27;13.30;97.60
17887;DHT22;9069;52.044;7.472;2023-03-21T01:18:55;13.30;97.60
17887;DHT22;9069;52.044;7.472;2023-03-21T01:21:22;13.30;97.60
17887;DHT22;9069;52.044;7.472;2023-03-21T01:23:49;13.30;97.60
17887;DHT22;9069;52.044;7.472;2023-03-21T01:26:16;13.30;97.70
17887;DHT22;9069;52.044;7.472;2023-03-21T01:28:43;13.30;97.70
17887;DHT22;9069;52.044;7.472;2023-03-21T01:31:13;13.30;97.70
17887;DHT22;9069;52.044;7.472;2023-03-21T01:33:42;13.30;97.80
17887;DHT22;9069;52.044;7.472;2023-03-21T01:36:15;13.30;97.80
17887;DHT22;9069;52.044;7.472;2023-03-21T01:38:44;13.30;97.90
17887;DHT22;9069;52.044;7.472;2023-03-21T01:44:04;13.30;97.90
17887;DHT22;9069;52.044;7.472;2023-03-21T01:46:41;13.30;97.90
17887;DHT22;9069;52.044;7.472;2023-03-21T01:49:57;13.30;97.90
17887;DHT22;9069;52.044;7.472;2023-03-21T01:52:35;13.20;97.90
17887;DHT22;9069;52.044;7.472;2023-03-21T01:55:10;13.30;97.90
17887;DHT22;9069;52.044;7.472;2023-03-21T01:57:59;13.40;98.40
17887;DHT22;9069;52.044;7.472;2023-03-21T02:00:40;13.30;98.00
17887;DHT22;9069;52.044;7.472;2023-03-21T02:03:22;13.30;98.00
17887;DHT22;9069;52.044;7.472;2023-03-21T02:06:48;13.30;98.00
17887;DHT22;9069;52.044;7.472;2023-03-21T02:09:29;13.30;98.10
17887;DHT22;9069;52.044;7.472;2023-03-21T02:11:59;13.40;98.10
17887;DHT22;9069;52.044;7.472;2023-03-21T02:14:32;13.30;98.10
17887;DHT22;9069;52.044;7.472;2023-03-21T02:25:51;13.30;98.30
17887;DHT22;9069;52.044;7.472;2023-03-21T02:28:27;13.30;98.30
17887;DHT22;9069;52.044;7.472;2023-03-21T02:31:10;13.30;98.30
17887;DHT22;9069;52.044;7.472;2023-03-21T02:37:00;13.30;98.30
17887;DHT22;9069;52.044;7.472;2023-03-21T02:39:44;13.30;98.30
17887;DHT22;9069;52.044;7.472;2023-03-21T02:42:36;13.30;98.20
17887;DHT22;9069;52.044;7.472;2023-03-21T02:45:18;13.30;98.40
17887;DHT22;9069;52.044;7.472;2023-03-21T02:48:00;13.30;98.30
17887;DHT22;9069;52.044;7.472;2023-03-21T02:50:37;13.30;98.40
17887;DHT22;9069;52.044;7.472;2023-03-21T02:53:09;13.30;98.40
17887;DHT22;9069;52.044;7.472;2023-03-21T02:55:40;13.30;98.40
17887;DHT22;9069;52.044;7.472;2023-03-21T02:58:11;13.30;98.40
17887;DHT22;9069;52.044;7.472;2023-03-21T03:00:48;13.30;98.50
17887;DHT22;9069;52.044;7.472;2023-03-21T03:03:30;13.30;98.50
17887;DHT22;9069;52.044;7.472;2023-03-21T03:06:08;13.30;98.50
17887;DHT22;9069;52.044;7.472;2023-03-21T03:09:06;13.30;98.70
17887;DHT22;9069;52.044;7.472;2023-03-21T03:11:41;13.30;98.70
17887;DHT22;9069;52.044;7.472;2023-03-21T03:17:22;13.30;98.90
17887;DHT22;9069;52.044;7.472;2023-03-21T03:23:30;13.30;99.00
17887;DHT22;9069;52.044;7.472;2023-03-21T03:26:23;13.20;99.00
17887;DHT22;9069;52.044;7.472;2023-03-21T03:28:58;13.20;98.90
17887;DHT22;9069;52.044;7.472;2023-03-21T03:31:32;13.20;98.80
17887;DHT22;9069;52.044;7.472;2023-03-21T03:34:12;13.20;98.90
17887;DHT22;9069;52.044;7.472;2023-03-21T03:36:44;13.20;98.90
17887;DHT22;9069;52.044;7.472;2023-03-21T03:39:15;13.20;98.90
17887;DHT22;9069;52.044;7.472;2023-03-21T03:42:02;13.20;98.90
17887;DHT22;9069;52.044;7.472;2023-03-21T03:44:51;13.20;99.00
17887;DHT22;9069;52.044;7.472;2023-03-21T03:47:47;13.20;98.90
17887;DHT22;9069;52.044;7.472;2023-03-21T03:53:26;13.20;98.90
17887;DHT22;9069;52.044;7.472;2023-03-21T03:55:56;13.20;99.00
17887;DHT22;9069;52.044;7.472;2023-03-21T03:58:24;13.20;98.90
17887;DHT22;9069;52.044;7.472;2023-03-21T04:01:06;13.20;98.90
17887;DHT22;9069;52.044;7.472;2023-03-21T04:03:35;13.20;98.90
17887;DHT22;9069;52.044;7.472;2023-03-21T04:06:16;13.20;98.90
17887;DHT22;9069;52.044;7.472;2023-03-21T04:08:44;13.20;98.90
17887;DHT22;9069;52.044;7.472;2023-03-21T04:11:13;13.20;98.90
17887;DHT22;9069;52.044;7.472;2023-03-21T04:13:45;13.20;98.90
17887;DHT22;9069;52.044;7.472;2023-03-21T04:16:18;13.20;98.80
17887;DHT22;9069;52.044;7.472;2023-03-21T04:18:45;13.20;98.80
17887;DHT22;9069;52.044;7.472;2023-03-21T04:21:17;13.20;98.90
17887;DHT22;9069;52.044;7.472;2023-03-21T04:23:44;13.20;98.80
17887;DHT22;9069;52.044;7.472;2023-03-21T04:26:11;13.20;98.80
17887;DHT22;9069;52.044;7.472;2023-03-21T04:28:42;13.20;98.90
17887;DHT22;9069;52.044;7.472;2023-03-21T04:31:23;13.20;98.80
17887;DHT22;9069;52.044;7.472;2023-03-21T04:34:04;13.20;98.80
17887;DHT22;9069;52.044;7.472;2023-03-21T04:36:37;13.20;98.80
17887;DHT22;9069;52.044;7.472;2023-03-21T04:39:14;13.20;98.80
17887;DHT22;9069;52.044;7.472;2023-03-21T04:41:44;13.20;98.80
17887;DHT22;9069;52.044;7.472;2023-03-21T04:44:13;13.20;98.80
17887;DHT22;9069;52.044;7.472;2023-03-21T04:46:41;13.20;98.90
17887;DHT22;9069;52.044;7.472;2023-03-21T04:49:09;13.20;98.90
17887;DHT22;9069;52.044;7.472;2023-03-21T04:51:36;13.20;99.20
17887;DHT22;9069;52.044;7.472;2023-03-21T04:54:08;13.20;98.90
17887;DHT22;9069;52.044;7.472;2023-03-21T04:56:35;13.20;98.80
17887;DHT22;9069;52.044;7.472;2023-03-21T04:59:08;13.20;98.80
17887;DHT22;9069;52.044;7.472;2023-03-21T05:01:35;13.20;98.90
17887;DHT22;9069;52.044;7.472;2023-03-21T05:04:03;13.20;98.80
17887;DHT22;9069;52.044;7.472;2023-03-21T05:06:32;13.20;98.80
17887;DHT22;9069;52.044;7.472;2023-03-21T05:09:00;13.20;98.80
17887;DHT22;9069;52.044;7.472;2023-03-21T05:11:34;13.20;98.90
17887;DHT22;9069;52.044;7.472;2023-03-21T05:14:04;13.20;98.80
17887;DHT22;9069;52.044;7.472;2023-03-21T05:16:31;13.20;98.80
17887;DHT22;9069;52.044;7.472;2023-03-21T05:18:59;13.20;98.80
17887;DHT22;9069;52.044;7.472;2023-03-21T05:21:32;13.30;98.80
17887;DHT22;9069;52.044;7.472;2023-03-21T05:24:18;13.30;98.80
17887;DHT22;9069;52.044;7.472;2023-03-21T05:26:46;13.30;98.80
17887;DHT22;9069;52.044;7.472;2023-03-21T05:29:18;13.30;98.80
17887;DHT22;9069;52.044;7.472;2023-03-21T05:31:51;13.20;98.80
17887;DHT22;9069;52.044;7.472;2023-03-21T05:34:19;13.30;98.80
17887;DHT22;9069;52.044;7.472;2023-03-21T05:36:46;13.30;98.80
17887;DHT22;9069;52.044;7.472;2023-03-21T05:39:13;13.30;98.80
17887;DHT22;9069;52.044;7.472;2023-03-21T05:41:45;13.30;98.80
17887;DHT22;9069;52.044;7.472;2023-03-21T05:44:12;13.20;98.80
17887;DHT22;9069;52.044;7.472;2023-03-21T05:46:39;13.30;98.80
17887;DHT22;9069;52.044;7.472;2023-03-21T05:49:06;13.30;98.80
17887;DHT22;9069;52.044;7.472;2023-03-21T05:51:33;13.30;98.80
17887;DHT22;9069;52.044;7.472;2023-03-21T05:54:00;13.30;98.80
17887;DHT22;9069;52.044;7.472;2023-03-21T05:56:28;13.30;98.90
17887;DHT22;9069;52.044;7.472;2023-03-21T05:59:00;13.20;98.90
17887;DHT22;9069;52.044;7.472;2023-03-21T06:01:29;13.30;99.00
17887;DHT22;9069;52.044;7.472;2023-03-21T06:04:06;13.30;99.00
17887;DHT22;9069;52.044;7.472;2023-03-21T06:06:33;13.30;99.00
17887;DHT22;9069;52.044;7.472;2023-03-21T06:09:00;13.30;99.00
17887;DHT22;9069;52.044;7.472;2023-03-21T06:11:32;13.30;99.00
17887;DHT22;9069;52.044;7.472;2023-03-21T06:14:24;13.30;99.00
17887;DHT22;9069;52.044;7.472;2023-03-21T06:17:12;13.30;99.00
17887;DHT22;9069;52.044;7.472;2023-03-21T06:20:03;13.30;99.10
17887;DHT22;9069;52.044;7.472;2023-03-21T06:22:35;13.30;99.10
17887;DHT22;9069;52.044;7.472;2023-03-21T06:25:03;13.30;99.20
17887;DHT22;9069;52.044;7.472;2023-03-21T06:27:30;13.30;99.30
17887;DHT22;9069;52.044;7.472;2023-03-21T06:29:57;13.30;99.30
17887;DHT22;9069;52.044;7.472;2023-03-21T06:32:26;13.30;99.40
17887;DHT22;9069;52.044;7.472;2023-03-21T06:34:57;13.30;99.40
17887;DHT22;9069;52.044;7.472;2023-03-21T06:37:24;13.30;99.40
17887;DHT22;9069;52.044;7.472;2023-03-21T06:39:52;13.30;99.50
17887;DHT22;9069;52.044;7.472;2023-03-21T06:42:21;13.30;99.50
17887;DHT22;9069;52.044;7.472;2023-03-21T06:44:50;13.30;99.60
17887;DHT22;9069;52.044;7.472;2023-03-21T06:47:16;13.20;99.60
17887;DHT22;9069;52.044;7.472;2023-03-21T06:49:45;13.20;99.60
17887;DHT22;9069;52.044;7.472;2023-03-21T06:52:12;13.20;99.60
17887;DHT22;9069;52.044;7.472;2023-03-21T06:54:40;13.30;99.70
17887;DHT22;9069;52.044;7.472;2023-03-21T06:57:13;13.20;99.80
17887;DHT22;9069;52.044;7.472;2023-03-21T06:59:40;13.20;99.80
17887;DHT22;9069;52.044;7.472;2023-03-21T07:02:14;13.20;99.90
17887;DHT22;9069;52.044;7.472;2023-03-21T07:04:58;13.30;99.90
17887;DHT22;9069;52.044;7.472;2023-03-21T07:07:27;13.30;99.90
17887;DHT22;9069;52.044;7.472;2023-03-21T07:09:55;13.30;99.90
17887;DHT22;9069;52.044;7.472;2023-03-21T07:12:23;13.30;99.90
17887;DHT22;9069;52.044;7.472;2023-03-21T07:15:08;13.30;99.90
17887;DHT22;9069;52.044;7.472;2023-03-21T07:17:37;13.30;99.90
17887;DHT22;9069;52.044;7.472;2023-03-21T07:20:04;13.30;99.90
17887;DHT22;9069;52.044;7.472;2023-03-21T07:22:34;13.40;99.90
17887;DHT22;9069;52.044;7.472;2023-03-21T07:25:02;13.40;99.90
17887;DHT22;9069;52.044;7.472;2023-03-21T07:27:36;13.40;99.90
17887;DHT22;9069;52.044;7.472;2023-03-21T07:30:07;13.40;99.90
17887;DHT22;9069;52.044;7.472;2023-03-21T07:32:34;13.40;99.90
17887;DHT22;9069;52.044;7.472;2023-03-21T07:35:04;13.40;99.90
17887;DHT22;9069;52.044;7.472;2023-03-21T07:37:31;13.50;99.90
17887;DHT22;9069;52.044;7.472;2023-03-21T07:39:58;13.50;99.90
17887;DHT22;9069;52.044;7.472;2023-03-21T07:42:25;13.50;99.90
17887;DHT22;9069;52.044;7.472;2023-03-21T07:44:58;13.50;99.90
17887;DHT22;9069;52.044;7.472;2023-03-21T07:47:27;13.50;99.90
17887;DHT22;9069;52.044;7.472;2023-03-21T07:49:55;13.50;99.90
17887;DHT22;9069;52.044;7.472;2023-03-21T07:52:21;13.50;99.90
17887;DHT22;9069;52.044;7.472;2023-03-21T07:54:48;13.50;99.90
17887;DHT22;9069;52.044;7.472;2023-03-21T07:57:15;13.50;99.90
17887;DHT22;9069;52.044;7.472;2023-03-21T07:59:43;13.50;99.90
17887;DHT22;9069;52.044;7.472;2023-03-21T08:02:13;13.50;99.90
17887;DHT22;9069;52.044;7.472;2023-03-21T08:04:40;13.50;99.90
17887;DHT22;9069;52.044;7.472;2023-03-21T08:07:07;13.60;99.90
17887;DHT22;9069;52.044;7.472;2023-03-21T08:09:34;13.60;99.90
17887;DHT22;9069;52.044;7.472;2023-03-21T08:12:02;13.60;99.90
17887;DHT22;9069;52.044;7.472;2023-03-21T08:14:29;13.60;99.90
17887;DHT22;9069;52.044;7.472;2023-03-21T08:16:56;13.60;99.90
17887;DHT22;9069;52.044;7.472;2023-03-21T08:19:23;13.60;99.90
17887;DHT22;9069;52.044;7.472;2023-03-21T08:21:49;13.60;99.90
17887;DHT22;9069;52.044;7.472;2023-03-21T08:24:17;13.70;99.90
17887;DHT22;9069;52.044;7.472;2023-03-21T08:26:44;13.70;99.90
17887;DHT22;9069;52.044;7.472;2023-03-21T08:29:12;13.70;99.90
17887;DHT22;9069;52.044;7.472;2023-03-21T08:31:39;13.70;99.90
17887;DHT22;9069;52.044;7.472;2023-03-21T08:34:06;13.70;99.90
17887;DHT22;9069;52.044;7.472;2023-03-21T08:36:35;13.80;99.90
17887;DHT22;9069;52.044;7.472;2023-03-21T08:39:03;13.80;99.90
17887;DHT22;9069;52.044;7.472;2023-03-21T08:41:35;13.80;99.90
17887;DHT22;9069;52.044;7.472;2023-03-21T08:44:03;13.80;99.90
17887;DHT22;9069;52.044;7.472;2023-03-21T08:46:31;13.80;99.90
17887;DHT22;9069;52.044;7.472;2023-03-21T08:48:58;13.90;99.90
17887;DHT22;9069;52.044;7.472;2023-03-21T08:51:25;13.80;99.90
17887;DHT22;9069;52.044;7.472;2023-03-21T08:53:51;13.90;99.90
17887;DHT22;9069;52.044;7.472;2023-03-21T08:56:18;13.90;99.90
17887;DHT22;9069;52.044;7.472;2023-03-21T08:58:45;14.00;99.90
17887;DHT22;9069;52.044;7.472;2023-03-21T09:01:12;14.00;99.90
17887;DHT22;9069;52.044;7.472;2023-03-21T09:03:42;14.00;99.90
17887;DHT22;9069;52.044;7.472;2023-03-21T09:06:10;14.00;99.90
17887;DHT22;9069;52.044;7.472;2023-03-21T09:08:39;14.10;99.90
17887;DHT22;9069;52.044;7.472;2023-03-21T09:11:08;14.10;99.90
17887;DHT22;9069;52.044;7.472;2023-03-21T09:13:35;14.10;99.90
17887;DHT22;9069;52.044;7.472;2023-03-21T09:16:02;14.10;99.90
17887;DHT22;9069;52.044;7.472;2023-03-21T09:18:29;14.10;99.90
17887;DHT22;9069;52.044;7.472;2023-03-21T09:21:14;14.20;99.90
17887;DHT22;9069;52.044;7.472;2023-03-21T09:23:41;14.20;99.90
17887;DHT22;9069;52.044;7.472;2023-03-21T09:26:10;14.20;99.90
17887;DHT22;9069;52.044;7.472;2023-03-21T09:28:38;14.30;99.90
17887;DHT22;9069;52.044;7.472;2023-03-21T09:31:06;14.30;99.90
17887;DHT22;9069;52.044;7.472;2023-03-21T09:33:34;14.30;99.90
17887;DHT22;9069;52.044;7.472;2023-03-21T09:36:01;14.30;99.90
17887;DHT22;9069;52.044;7.472;2023-03-21T09:38:29;14.30;99.90
17887;DHT22;9069;52.044;7.472;2023-03-21T09:41:10;14.40;99.90
17887;DHT22;9069;52.044;7.472;2023-03-21T09:51:46;14.50;99.90
17887;DHT22;9069;52.044;7.472;2023-03-21T09:54:17;14.50;99.90
17887;DHT22;9069;52.044;7.472;2023-03-21T09:56:48;14.60;99.90
17887;DHT22;9069;52.044;7.472;2023-03-21T09:59:28;14.60;99.90
17887;DHT22;9069;52.044;7.472;2023-03-21T10:01:59;14.60;99.90
17887;DHT22;9069;52.044;7.472;2023-03-21T10:04:27;14.60;99.90
17887;DHT22;9069;52.044;7.472;2023-03-21T10:07:00;14.70;99.90
17887;DHT22;9069;52.044;7.472;2023-03-21T10:09:28;14.70;99.90
17887;DHT22;9069;52.044;7.472;2023-03-21T10:12:01;14.70;99.90
17887;DHT22;9069;52.044;7.472;2023-03-21T10:20:14;14.70;99.90
17887;DHT22;9069;52.044;7.472;2023-03-21T10:22:43;14.70;99.90
17887;DHT22;9069;52.044;7.472;2023-03-21T10:25:21;14.70;99.90
17887;DHT22;9069;52.044;7.472;2023-03-21T10:27:50;14.70;99.90
17887;DHT22;9069;52.044;7.472;2023-03-21T10:32:51;14.70;99.90
17887;DHT22;9069;52.044;7.472;2023-03-21T10:35:18;14.70;99.90
17887;DHT22;9069;52.044;7.472;2023-03-21T10:37:45;14.70;99.90
17887;DHT22;9069;52.044;7.472;2023-03-21T10:40:15;14.60;99.90
17887;DHT22;9069;52.044;7.472;2023-03-21T10:42:43;14.60;99.90
17887;DHT22;9069;52.044;7.472;2023-03-21T10:45:15;14.60;99.90
17887;DHT22;9069;52.044;7.472;2023-03-21T10:47:46;14.60;99.90
17887;DHT22;9069;52.044;7.472;2023-03-21T10:50:16;14.60;99.90
17887;DHT22;9069;52.044;7.472;2023-03-21T10:52:49;14.60;99.90
17887;DHT22;9069;52.044;7.472;2023-03-21T10:57:44;14.70;99.90
17887;DHT22;9069;52.044;7.472;2023-03-21T11:00:20;14.70;99.90
17887;DHT22;9069;52.044;7.472;2023-03-21T11:02:49;14.70;99.90
17887;DHT22;9069;52.044;7.472;2023-03-21T11:05:38;14.70;99.90
17887;DHT22;9069;52.044;7.472;2023-03-21T11:08:12;14.80;99.90
17887;DHT22;9069;52.044;7.472;2023-03-21T11:10:59;14.80;99.90
17887;DHT22;9069;52.044;7.472;2023-03-21T11:13:33;14.80;99.90
17887;DHT22;9069;52.044;7.472;2023-03-21T11:16:49;14.90;99.90
17887;DHT22;9069;52.044;7.472;2023-03-21T11:19:00;14.90;99.90
17887;DHT22;9069;52.044;7.472;2023-03-21T11:21:27;14.90;99.90
17887;DHT22;9069;52.044;7.472;2023-03-21T11:23:55;14.90;99.90
17887;DHT22;9069;52.044;7.472;2023-03-21T11:26:29;15.00;99.90
17887;DHT22;9069;52.044;7.472;2023-03-21T11:28:56;15.00;99.90
17887;DHT22;9069;52.044;7.472;2023-03-21T11:31:39;15.00;99.90
17887;DHT22;9069;52.044;7.472;2023-03-21T11:34:07;15.00;99.90
17887;DHT22;9069;52.044;7.472;2023-03-21T11:36:37;15.00;99.90
17887;DHT22;9069;52.044;7.472;2023-03-21T11:39:35;15.00;99.90
17887;DHT22;9069;52.044;7.472;2023-03-21T11:42:27;15.00;99.90
17887;DHT22;9069;52.044;7.472;2023-03-21T11:45:04;15.00;99.90
17887;DHT22;9069;52.044;7.472;2023-03-21T11:47:36;15.00;99.90
17887;DHT22;9069;52.044;7.472;2023-03-21T11:50:48;15.00;99.90
17887;DHT22;9069;52.044;7.472;2023-03-21T11:53:04;15.00;99.90
17887;DHT22;9069;52.044;7.472;2023-03-21T12:01:04;15.00;99.90
17887;DHT22;9069;52.044;7.472;2023-03-21T12:04:02;15.00;99.90
17887;DHT22;9069;52.044;7.472;2023-03-21T12:09:54;15.00;99.90
17887;DHT22;9069;52.044;7.472;2023-03-21T12:12:17;15.00;99.90
17887;DHT22;9069;52.044;7.472;2023-03-21T12:20:46;15.00;99.90
17887;DHT22;9069;52.044;7.472;2023-03-21T12:26:30;15.10;99.90
17887;DHT22;9069;52.044;7.472;2023-03-21T12:29:06;15.10;99.90
17887;DHT22;9069;52.044;7.472;2023-03-21T12:39:40;15.30;99.90
17887;DHT22;9069;52.044;7.472;2023-03-21T12:45:15;15.40;99.90
17887;DHT22;9069;52.044;7.472;2023-03-21T12:47:51;15.40;99.90
17887;DHT22;9069;52.044;7.472;2023-03-21T12:50:29;15.50;99.90
17887;DHT22;9069;52.044;7.472;2023-03-21T12:53:04;15.60;99.90
17887;DHT22;9069;52.044;7.472;2023-03-21T12:55:34;15.60;99.90
17887;DHT22;9069;52.044;7.472;2023-03-21T12:58:21;15.70;99.90
17887;DHT22;9069;52.044;7.472;2023-03-21T13:00:58;15.70;99.90
17887;DHT22;9069;52.044;7.472;2023-03-21T13:03:35;15.80;99.90
17887;DHT22;9069;52.044;7.472;2023-03-21T13:06:14;15.80;99.70
17887;DHT22;9069;52.044;7.472;2023-03-21T13:08:48;15.90;99.70
17887;DHT22;9069;52.044;7.472;2023-03-21T13:11:19;15.90;99.50
17887;DHT22;9069;52.044;7.472;2023-03-21T13:16:47;15.90;98.90
17887;DHT22;9069;52.044;7.472;2023-03-21T13:19:30;16.00;99.20
17887;DHT22;9069;52.044;7.472;2023-03-21T13:22:10;16.00;99.40
17887;DHT22;9069;52.044;7.472;2023-03-21T13:24:40;16.00;99.10
17887;DHT22;9069;52.044;7.472;2023-03-21T13:27:41;16.00;98.70
17887;DHT22;9069;52.044;7.472;2023-03-21T13:30:18;16.00;98.30
17887;DHT22;9069;52.044;7.472;2023-03-21T13:32:50;16.10;98.60
17887;DHT22;9069;52.044;7.472;2023-03-21T13:38:08;16.10;98.60
17887;DHT22;9069;52.044;7.472;2023-03-21T13:40:50;16.10;98.40
17887;DHT22;9069;52.044;7.472;2023-03-21T13:46:34;16.10;98.20
17887;DHT22;9069;52.044;7.472;2023-03-21T13:49:34;16.10;98.10
17887;DHT22;9069;52.044;7.472;2023-03-21T13:57:05;16.10;98.50
17887;DHT22;9069;52.044;7.472;2023-03-21T14:04:58;16.10;98.60
17887;DHT22;9069;52.044;7.472;2023-03-21T14:07:36;16.10;98.70
17887;DHT22;9069;52.044;7.472;2023-03-21T14:10:27;16.10;98.80
17887;DHT22;9069;52.044;7.472;2023-03-21T14:12:55;16.10;98.70
17887;DHT22;9069;52.044;7.472;2023-03-21T14:15:25;16.20;98.90
17887;DHT22;9069;52.044;7.472;2023-03-21T14:20:32;16.20;98.80
17887;DHT22;9069;52.044;7.472;2023-03-21T14:22:59;16.20;98.60
17887;DHT22;9069;52.044;7.472;2023-03-21T14:25:33;16.30;98.80
17887;DHT22;9069;52.044;7.472;2023-03-21T14:30:45;16.30;98.70
17887;DHT22;9069;52.044;7.472;2023-03-21T14:33:36;16.40;98.80
17887;DHT22;9069;52.044;7.472;2023-03-21T14:36:17;16.40;98.40
17887;DHT22;9069;52.044;7.472;2023-03-21T14:41:25;16.50;98.10
17887;DHT22;9069;52.044;7.472;2023-03-21T14:44:13;16.50;98.00
17887;DHT22;9069;52.044;7.472;2023-03-21T14:46:41;16.50;97.20
17887;DHT22;9069;52.044;7.472;2023-03-21T14:49:26;16.60;97.70
17887;DHT22;9069;52.044;7.472;2023-03-21T14:51:56;16.60;97.10
17887;DHT22;9069;52.044;7.472;2023-03-21T14:54:23;16.60;97.10
17887;DHT22;9069;52.044;7.472;2023-03-21T14:56:59;16.60;97.40
17887;DHT22;9069;52.044;7.472;2023-03-21T14:59:29;16.60;96.60
17887;DHT22;9069;52.044;7.472;2023-03-21T15:02:00;16.60;96.70
17887;DHT22;9069;52.044;7.472;2023-03-21T15:04:29;16.60;96.90
17887;DHT22;9069;52.044;7.472;2023-03-21T15:07:01;16.60;96.60
17887;DHT22;9069;52.044;7.472;2023-03-21T15:09:32;16.60;96.00
17887;DHT22;9069;52.044;7.472;2023-03-21T15:12:00;16.60;96.20
17887;DHT22;9069;52.044;7.472;2023-03-21T15:14:34;16.60;96.00
17887;DHT22;9069;52.044;7.472;2023-03-21T15:17:02;16.60;95.30
17887;DHT22;9069;52.044;7.472;2023-03-21T15:19:33;16.60;95.70
17887;DHT22;9069;52.044;7.472;2023-03-21T15:22:07;16.60;95.40
17887;DHT22;9069;52.044;7.472;2023-03-21T15:24:40;16.60;95.00
17887;DHT22;9069;52.044;7.472;2023-03-21T15:27:14;16.60;95.10
17887;DHT22;9069;52.044;7.472;2023-03-21T15:29:42;16.50;94.80
17887;DHT22;9069;52.044;7.472;2023-03-21T15:32:16;16.50;95.30
17887;DHT22;9069;52.044;7.472;2023-03-21T15:34:44;16.50;94.90
17887;DHT22;9069;52.044;7.472;2023-03-21T15:37:22;16.50;95.30
17887;DHT22;9069;52.044;7.472;2023-03-21T15:39:49;16.50;94.60
17887;DHT22;9069;52.044;7.472;2023-03-21T15:42:29;16.40;95.10
17887;DHT22;9069;52.044;7.472;2023-03-21T15:45:00;16.40;94.70
17887;DHT22;9069;52.044;7.472;2023-03-21T15:50:25;16.40;94.30
17887;DHT22;9069;52.044;7.472;2023-03-21T15:52:53;16.50;94.50
17887;DHT22;9069;52.044;7.472;2023-03-21T15:55:31;16.40;95.00
17887;DHT22;9069;52.044;7.472;2023-03-21T15:58:11;16.40;94.70
17887;DHT22;9069;52.044;7.472;2023-03-21T16:01:04;16.40;94.70
17887;DHT22;9069;52.044;7.472;2023-03-21T16:03:35;16.40;95.10
17887;DHT22;9069;52.044;7.472;2023-03-21T16:06:17;16.40;95.10
17887;DHT22;9069;52.044;7.472;2023-03-21T16:08:50;16.40;94.90
17887;DHT22;9069;52.044;7.472;2023-03-21T16:11:25;16.40;95.00
17887;DHT22;9069;52.044;7.472;2023-03-21T16:13:54;16.40;94.90
17887;DHT22;9069;52.044;7.472;2023-03-21T16:16:24;16.50;95.10
17887;DHT22;9069;52.044;7.472;2023-03-21T16:18:51;16.50;95.00
17887;DHT22;9069;52.044;7.472;2023-03-21T16:21:22;16.50;94.90
17887;DHT22;9069;52.044;7.472;2023-03-21T16:23:49;16.50;94.80
17887;DHT22;9069;52.044;7.472;2023-03-21T16:26:22;16.50;94.90
17887;DHT22;9069;52.044;7.472;2023-03-21T16:28:49;16.50;94.70
17887;DHT22;9069;52.044;7.472;2023-03-21T16:31:18;16.50;94.80
17887;DHT22;9069;52.044;7.472;2023-03-21T16:33:46;16.50;94.60
17887;DHT22;9069;52.044;7.472;2023-03-21T16:36:25;16.40;94.50
17887;DHT22;9069;52.044;7.472;2023-03-21T16:38:53;16.40;94.30
17887;DHT22;9069;52.044;7.472;2023-03-21T16:41:24;16.40;94.40
17887;DHT22;9069;52.044;7.472;2023-03-21T16:43:52;16.30;94.10
17887;DHT22;9069;52.044;7.472;2023-03-21T16:46:24;16.30;94.40
17887;DHT22;9069;52.044;7.472;2023-03-21T16:48:54;16.30;94.30
17887;DHT22;9069;52.044;7.472;2023-03-21T16:51:32;16.30;94.30
17887;DHT22;9069;52.044;7.472;2023-03-21T16:53:59;16.20;94.30
17887;DHT22;9069;52.044;7.472;2023-03-21T16:56:28;16.20;94.30
17887;DHT22;9069;52.044;7.472;2023-03-21T16:58:56;16.20;94.40
17887;DHT22;9069;52.044;7.472;2023-03-21T17:01:23;16.20;94.40
17887;DHT22;9069;52.044;7.472;2023-03-21T17:03:55;16.10;94.40
17887;DHT22;9069;52.044;7.472;2023-03-21T17:06:27;16.10;94.40
17887;DHT22;9069;52.044;7.472;2023-03-21T17:08:55;16.10;94.30
17887;DHT22;9069;52.044;7.472;2023-03-21T17:11:24;16.00;94.30
17887;DHT22;9069;52.044;7.472;2023-03-21T17:13:53;16.00;94.40
17887;DHT22;9069;52.044;7.472;2023-03-21T17:16:23;16.00;94.40
17887;DHT22;9069;52.044;7.472;2023-03-21T17:18:53;16.00;94.50
17887;DHT22;9069;52.044;7.472;2023-03-21T17:21:22;16.00;94.50
17887;DHT22;9069;52.044;7.472;2023-03-21T17:23:51;15.90;94.40
17887;DHT22;9069;52.044;7.472;2023-03-21T17:26:26;15.90;94.50
17887;DHT22;9069;52.044;7.472;2023-03-21T17:28:54;15.90;94.40
17887;DHT22;9069;52.044;7.472;2023-03-21T17:31:26;15.90;94.60
17887;DHT22;9069;52.044;7.472;2023-03-21T17:33:53;15.90;94.60
17887;DHT22;9069;52.044;7.472;2023-03-21T17:36:27;15.90;94.70
17887;DHT22;9069;52.044;7.472;2023-03-21T17:38:55;15.80;94.50
17887;DHT22;9069;52.044;7.472;2023-03-21T17:41:23;15.80;94.70
17887;DHT22;9069;52.044;7.472;2023-03-21T17:43:50;15.80;94.80
17887;DHT22;9069;52.044;7.472;2023-03-21T17:46:19;15.80;94.80
17887;DHT22;9069;52.044;7.472;2023-03-21T17:48:48;15.80;94.70
17887;DHT22;9069;52.044;7.472;2023-03-21T17:51:14;15.80;94.80
17887;DHT22;9069;52.044;7.472;2023-03-21T17:53:46;15.70;94.80
17887;DHT22;9069;52.044;7.472;2023-03-21T17:56:17;15.70;94.80
17887;DHT22;9069;52.044;7.472;2023-03-21T17:58:45;15.70;94.80
17887;DHT22;9069;52.044;7.472;2023-03-21T18:01:13;15.70;94.80